Time;durP1;ratioP1;P1;durP2;ratioP2;P2;SDS_P1;SDS_P2;PMS_P1;PMS_P2;Temp;Humidity;BMP_temperature;BMP_pressure;BME280_temperature;BME280_humidity;BME280_pressure;Samples;Min_cycle;Max_cycle;Signal;HPM_P1;HPM_P2
2023/06/28 00:01:23;;;;;;;11.77;7.18;;;;;;;;;;10032048;29;20074;-68
2023/06/28 00:06:22;;;;;;;8.00;6.15;;;;;;;;;;10031876;29;20119;-68
2023/06/28 00:11:18;;;;;;;7.20;6.50;;;;;;;;;;10018533;29;20055;-67
2023/06/28 00:16:14;;;;;;;9.82;7.03;;;;;;;;;;10036230;29;20051;-69
2023/06/28 00:21:14;;;;;;;10.50;6.43;;;;;;;;;;10032504;29;20514;-68
2023/06/28 00:26:10;;;;;;;7.53;6.80;;;;;;;;;;10031364;29;20171;-68
2023/06/28 00:31:07;;;;;;;9.43;6.80;;;;;;;;;;10028912;29;20099;-68
2023/06/28 00:36:04;;;;;;;10.00;7.13;;;;;;;;;;10036181;29;20043;-68
2023/06/28 00:41:00;;;;;;;9.85;6.90;;;;;;;;;;10034786;29;20106;-67
2023/06/28 00:45:56;;;;;;;8.90;6.68;;;;;;;;;;10028485;29;20082;-68
2023/06/28 00:50:54;;;;;;;7.97;7.18;;;;;;;;;;10031743;29;20044;-68
2023/06/28 00:55:50;;;;;;;8.23;7.30;;;;;;;;;;10034219;29;20077;-68
2023/06/28 01:00:46;;;;;;;7.80;6.90;;;;;;;;;;10033192;29;20059;-68
2023/06/28 01:05:43;;;;;;;8.63;6.57;;;;;;;;;;10029058;29;20407;-68
2023/06/28 01:10:40;;;;;;;8.02;7.22;;;;;;;;;;10034368;29;20071;-68
2023/06/28 01:15:37;;;;;;;8.52;7.15;;;;;;;;;;10031581;29;20467;-66
2023/06/28 01:20:33;;;;;;;8.02;6.85;;;;;;;;;;10032910;29;20414;-66
2023/06/28 01:25:29;;;;;;;10.02;7.85;;;;;;;;;;10028216;29;20817;-67
2023/06/28 01:30:26;;;;;;;11.07;7.32;;;;;;;;;;10031650;29;20064;-66
2023/06/28 01:35:22;;;;;;;13.68;8.32;;;;;;;;;;10029335;29;20613;-66
2023/06/28 01:40:19;;;;;;;8.27;7.47;;;;;;;;;;10017839;29;20755;-67
2023/06/28 01:45:16;;;;;;;7.90;6.72;;;;;;;;;;10026994;29;20060;-69
2023/06/28 01:50:13;;;;;;;9.77;7.93;;;;;;;;;;10028661;29;20056;-69
2023/06/28 01:55:10;;;;;;;8.00;7.30;;;;;;;;;;10029422;29;20457;-69
2023/06/28 02:00:08;;;;;;;11.85;8.27;;;;;;;;;;10028262;29;20107;-69
2023/06/28 02:05:04;;;;;;;8.07;7.25;;;;;;;;;;10026682;29;20044;-67
2023/06/28 02:10:00;;;;;;;7.82;7.15;;;;;;;;;;10030793;29;20449;-67
2023/06/28 02:14:57;;;;;;;8.43;7.68;;;;;;;;;;10030406;29;20721;-67
2023/06/28 02:19:53;;;;;;;9.38;8.52;;;;;;;;;;10025513;29;20044;-67
2023/06/28 02:24:50;;;;;;;9.80;8.85;;;;;;;;;;10028743;29;20067;-67
2023/06/28 02:29:46;;;;;;;8.38;7.55;;;;;;;;;;10029581;29;20079;-68
2023/06/28 02:34:42;;;;;;;10.95;9.05;;;;;;;;;;10027271;29;20059;-68
2023/06/28 02:39:39;;;;;;;9.77;7.95;;;;;;;;;;10028403;29;20074;-67
2023/06/28 02:44:35;;;;;;;9.73;8.73;;;;;;;;;;10027175;29;20473;-68
2023/06/28 02:49:31;;;;;;;13.15;9.10;;;;;;;;;;10024339;29;20048;-68
2023/06/28 02:54:28;;;;;;;12.85;8.18;;;;;;;;;;10024925;29;20115;-68
2023/06/28 02:59:24;;;;;;;14.32;8.95;;;;;;;;;;10023808;29;20055;-68
2023/06/28 03:04:20;;;;;;;15.90;9.70;;;;;;;;;;10027555;29;20067;-68
2023/06/28 03:09:17;;;;;;;10.20;8.20;;;;;;;;;;10026925;29;20130;-68
2023/06/28 03:14:13;;;;;;;16.48;10.40;;;;;;;;;;10028113;29;20518;-66
2023/06/28 03:19:11;;;;;;;11.40;9.35;;;;;;;;;;10019644;29;20177;-68
2023/06/28 03:24:07;;;;;;;9.80;8.80;;;;;;;;;;10028423;29;20036;-68
2023/06/28 03:29:03;;;;;;;13.77;10.35;;;;;;;;;;10021861;29;20702;-68
2023/06/28 03:34:00;;;;;;;13.13;10.43;;;;;;;;;;10024902;29;20062;-70
2023/06/28 03:38:56;;;;;;;12.88;10.02;;;;;;;;;;10017627;29;20093;-70
2023/06/28 03:43:53;;;;;;;14.15;9.88;;;;;;;;;;10021170;29;20084;-70
2023/06/28 03:48:49;;;;;;;15.95;10.25;;;;;;;;;;10022005;29;20040;-70
2023/06/28 03:53:45;;;;;;;14.68;10.05;;;;;;;;;;10026559;29;20134;-71
2023/06/28 03:58:42;;;;;;;16.77;10.63;;;;;;;;;;10033212;29;20083;-70
2023/06/28 04:03:38;;;;;;;13.77;11.13;;;;;;;;;;10028469;29;20486;-70
2023/06/28 04:08:35;;;;;;;12.32;10.65;;;;;;;;;;10031474;29;20051;-70
2023/06/28 04:13:31;;;;;;;13.15;10.40;;;;;;;;;;10031577;29;20078;-71
2023/06/28 04:18:27;;;;;;;12.80;11.45;;;;;;;;;;10015744;29;20110;-70
2023/06/28 04:23:24;;;;;;;13.90;10.75;;;;;;;;;;10034830;29;20043;-70
2023/06/28 04:28:20;;;;;;;14.75;10.98;;;;;;;;;;10030911;29;20429;-70
2023/06/28 04:33:18;;;;;;;13.07;11.60;;;;;;;;;;10031778;29;20047;-70
2023/06/28 04:38:15;;;;;;;12.45;11.18;;;;;;;;;;10022551;29;20426;-71
2023/06/28 04:43:14;;;;;;;15.32;11.60;;;;;;;;;;10023438;29;20055;-70
2023/06/28 04:48:10;;;;;;;13.48;11.50;;;;;;;;;;10025599;29;20051;-70
2023/06/28 04:53:06;;;;;;;13.18;11.77;;;;;;;;;;10014898;29;20339;-71
2023/06/28 04:58:05;;;;;;;12.23;10.90;;;;;;;;;;10022267;29;20134;-70
2023/06/28 05:03:02;;;;;;;12.75;11.30;;;;;;;;;;10030690;29;20498;-70
2023/06/28 05:07:59;;;;;;;13.15;11.35;;;;;;;;;;10015609;29;20040;-71
2023/06/28 05:12:56;;;;;;;12.23;11.20;;;;;;;;;;10030259;29;20079;-70
2023/06/28 05:17:52;;;;;;;13.52;11.05;;;;;;;;;;10015406;29;20043;-72
2023/06/28 05:22:49;;;;;;;14.35;11.05;;;;;;;;;;10012059;29;20039;-72
2023/06/28 05:27:45;;;;;;;16.88;12.38;;;;;;;;;;10030027;29;20051;-72
2023/06/28 05:32:41;;;;;;;12.00;10.93;;;;;;;;;;10030901;29;20044;-72
2023/06/28 05:37:40;;;;;;;12.45;11.30;;;;;;;;;;10014102;29;20131;-72
2023/06/28 05:42:37;;;;;;;11.77;10.55;;;;;;;;;;10028788;29;20572;-71
2023/06/28 05:47:33;;;;;;;12.50;10.95;;;;;;;;;;10005489;29;20537;-71
2023/06/28 05:52:30;;;;;;;11.80;10.63;;;;;;;;;;10023822;29;20079;-71
2023/06/28 05:57:26;;;;;;;11.52;9.88;;;;;;;;;;10026632;29;20058;-71
2023/06/28 06:02:22;;;;;;;11.35;10.20;;;;;;;;;;9994044;29;20083;-71
2023/06/28 06:07:19;;;;;;;17.48;10.85;;;;;;;;;;9989319;29;20703;-72
2023/06/28 06:12:15;;;;;;;10.90;9.20;;;;;;;;;;9993853;29;20083;-71
2023/06/28 06:17:12;;;;;;;12.35;9.52;;;;;;;;;;9988092;29;20104;-71
2023/06/28 06:22:08;;;;;;;10.68;9.75;;;;;;;;;;10007889;29;20099;-71
2023/06/28 06:27:05;;;;;;;10.52;9.25;;;;;;;;;;9997588;29;20048;-71
2023/06/28 06:32:01;;;;;;;11.32;9.60;;;;;;;;;;9998440;29;20039;-71
2023/06/28 06:36:58;;;;;;;10.27;9.07;;;;;;;;;;10027033;29;20047;-71
2023/06/28 06:41:55;;;;;;;11.88;7.40;;;;;;;;;;10029769;29;20051;-71
2023/06/28 06:46:51;;;;;;;7.90;7.10;;;;;;;;;;10013560;29;20059;-71
2023/06/28 06:51:47;;;;;;;11.77;7.25;;;;;;;;;;10014415;29;20060;-71
2023/06/28 06:56:44;;;;;;;11.40;7.50;;;;;;;;;;10010806;29;20058;-71
2023/06/28 07:01:40;;;;;;;10.88;7.75;;;;;;;;;;10013152;29;20059;-70
2023/06/28 07:06:36;;;;;;;10.52;7.10;;;;;;;;;;10030406;29;20058;-71
2023/06/28 07:11:33;;;;;;;14.25;7.20;;;;;;;;;;10030951;29;20568;-71
2023/06/28 07:16:29;;;;;;;10.15;7.05;;;;;;;;;;10028441;29;20047;-71
2023/06/28 07:21:25;;;;;;;8.50;7.63;;;;;;;;;;10029156;29;20047;-71
2023/06/28 07:26:22;;;;;;;8.05;7.20;;;;;;;;;;10028288;29;20395;-71
2023/06/28 07:31:18;;;;;;;11.32;8.23;;;;;;;;;;10034468;29;20039;-71
2023/06/28 07:36:15;;;;;;;8.90;8.05;;;;;;;;;;10036369;29;21350;-71
2023/06/28 07:41:11;;;;;;;13.73;7.90;;;;;;;;;;10036844;29;20091;-71
2023/06/28 07:46:08;;;;;;;13.43;9.98;;;;;;;;;;10035789;29;20055;-76
2023/06/28 07:51:05;;;;;;;9.05;8.15;;;;;;;;;;10037811;29;20067;-76
2023/06/28 07:56:01;;;;;;;10.15;8.68;;;;;;;;;;10037476;29;20055;-76
2023/06/28 08:00:58;;;;;;;9.55;8.10;;;;;;;;;;10031501;29;20548;-76
2023/06/28 08:05:54;;;;;;;9.52;8.60;;;;;;;;;;10034884;29;20537;-76
2023/06/28 08:10:50;;;;;;;9.30;8.35;;;;;;;;;;10033961;29;20056;-77
2023/06/28 08:15:47;;;;;;;9.63;8.63;;;;;;;;;;10036540;29;20498;-76
2023/06/28 08:20:44;;;;;;;10.57;9.20;;;;;;;;;;10035870;29;20329;-76
2023/06/28 08:25:40;;;;;;;10.15;8.85;;;;;;;;;;10035840;29;20506;-76
2023/06/28 08:30:37;;;;;;;10.45;9.52;;;;;;;;;;10034749;29;20051;-77
2023/06/28 08:35:33;;;;;;;9.88;8.48;;;;;;;;;;10034646;29;20071;-76
2023/06/28 08:40:30;;;;;;;10.48;9.43;;;;;;;;;;10035071;29;20039;-75
2023/06/28 08:45:26;;;;;;;13.02;8.50;;;;;;;;;;10035391;29;20051;-76
2023/06/28 08:50:22;;;;;;;10.88;9.40;;;;;;;;;;10035287;29;20083;-77
2023/06/28 08:55:20;;;;;;;10.05;9.18;;;;;;;;;;10027806;29;20044;-76
2023/06/28 09:00:17;;;;;;;10.48;9.38;;;;;;;;;;10034650;29;20047;-76
2023/06/28 09:05:14;;;;;;;10.80;9.18;;;;;;;;;;10034004;29;20051;-77
2023/06/28 09:10:10;;;;;;;9.90;8.90;;;;;;;;;;10027977;29;20094;-76
2023/06/28 09:15:07;;;;;;;11.60;9.55;;;;;;;;;;10033468;29;20055;-76
2023/06/28 09:20:16;;;;;;;9.80;8.43;;;;;;;;;;10032744;29;20047;-76
2023/06/28 09:25:14;;;;;;;10.23;9.15;;;;;;;;;;10033546;29;20960;-76
2023/06/28 09:30:16;;;;;;;13.00;8.85;;;;;;;;;;10034026;29;20553;-76
2023/06/28 09:35:12;;;;;;;9.57;8.77;;;;;;;;;;10031101;29;20523;-76
2023/06/28 09:40:14;;;;;;;10.10;8.85;;;;;;;;;;10030417;29;20126;-77
2023/06/28 09:45:22;;;;;;;9.88;8.95;;;;;;;;;;10026844;29;20486;-76
2023/06/28 09:50:18;;;;;;;10.75;9.65;;;;;;;;;;10030325;29;20059;-77
2023/06/28 09:55:15;;;;;;;10.27;9.30;;;;;;;;;;10030342;29;20509;-76
2023/06/28 10:00:13;;;;;;;10.20;9.20;;;;;;;;;;10027439;29;20039;-76
2023/06/28 10:05:12;;;;;;;10.05;8.75;;;;;;;;;;10032481;29;20071;-77
2023/06/28 10:10:08;;;;;;;10.00;8.95;;;;;;;;;;10015338;29;20052;-77
2023/06/28 10:15:10;;;;;;;11.90;10.70;;;;;;;;;;10009539;29;20486;-76
2023/06/28 10:20:07;;;;;;;14.68;10.05;;;;;;;;;;10029754;29;20059;-76
2023/06/28 10:25:04;;;;;;;13.45;9.65;;;;;;;;;;10030740;29;20081;-76
2023/06/28 10:30:01;;;;;;;11.60;10.10;;;;;;;;;;10032729;29;20051;-76
2023/06/28 10:34:58;;;;;;;10.52;9.63;;;;;;;;;;10031570;29;20057;-76
2023/06/28 10:39:54;;;;;;;13.50;9.95;;;;;;;;;;10031498;29;21334;-76
2023/06/28 10:44:57;;;;;;;10.60;9.68;;;;;;;;;;10029179;29;20098;-76
2023/06/28 10:50:09;;;;;;;9.98;9.05;;;;;;;;;;10030002;29;20059;-76
2023/06/28 10:55:11;;;;;;;;;;;;;;;;;;10012676;29;20063;-75
2023/06/28 11:00:27;;;;;;;10.10;9.15;;;;;;;;;;10022035;29;20576;-76
2023/06/28 11:05:49;;;;;;;10.00;9.02;;;;;;;;;;10027763;29;20071;-76
2023/06/28 11:10:53;;;;;;;8.77;7.70;;;;;;;;;;10038289;29;20501;-76
2023/06/28 11:15:51;;;;;;;9.18;8.38;;;;;;;;;;10031831;29;20458;-76
2023/06/28 11:20:49;;;;;;;8.50;7.63;;;;;;;;;;10038555;29;20054;-76
2023/06/28 11:25:46;;;;;;;8.52;7.82;;;;;;;;;;10018614;29;20665;-75
2023/06/28 11:30:46;;;;;;;9.05;8.18;;;;;;;;;;10039336;29;20510;-76
2023/06/28 11:35:43;;;;;;;9.40;8.48;;;;;;;;;;10038832;29;20048;-76
2023/06/28 11:40:40;;;;;;;9.40;8.48;;;;;;;;;;10039046;29;20055;-76
2023/06/28 11:45:36;;;;;;;9.35;8.40;;;;;;;;;;10038719;29;20056;-76
2023/06/28 11:50:32;;;;;;;9.80;8.20;;;;;;;;;;10036242;29;20052;-75
2023/06/28 11:55:30;;;;;;;8.88;8.10;;;;;;;;;;10019224;29;20619;-75
2023/06/28 12:00:36;;;;;;;9.93;8.80;;;;;;;;;;10028423;29;20071;-76
2023/06/28 12:05:32;;;;;;;8.40;7.75;;;;;;;;;;9999181;29;20071;-76
2023/06/28 12:10:33;;;;;;;8.13;7.43;;;;;;;;;;10000894;29;20063;-76
2023/06/28 12:15:30;;;;;;;8.68;7.82;;;;;;;;;;10035393;29;20089;-75
2023/06/28 12:20:26;;;;;;;8.20;7.40;;;;;;;;;;10030768;29;20052;-75
2023/06/28 12:25:30;;;;;;;9.15;8.43;;;;;;;;;;9996867;29;20665;-76
2023/06/28 12:30:26;;;;;;;8.57;7.88;;;;;;;;;;9987539;29;20051;-75
2023/06/28 12:35:23;;;;;;;8.23;7.45;;;;;;;;;;9985630;29;20056;-75
2023/06/28 12:40:23;;;;;;;8.15;7.55;;;;;;;;;;10000277;29;20099;-75
2023/06/28 12:45:21;;;;;;;9.30;8.38;;;;;;;;;;9995362;29;20107;-75
2023/06/28 12:50:17;;;;;;;8.75;8.05;;;;;;;;;;10030926;29;20039;-75
2023/06/28 12:55:14;;;;;;;9.18;8.38;;;;;;;;;;10034710;29;20111;-75
2023/06/28 13:00:10;;;;;;;9.45;8.55;;;;;;;;;;10035006;29;20051;-74
2023/06/28 13:05:07;;;;;;;9.60;8.70;;;;;;;;;;10032548;29;20091;-75
2023/06/28 13:10:03;;;;;;;8.23;7.60;;;;;;;;;;10028219;29;20498;-75
2023/06/28 13:15:00;;;;;;;9.18;7.80;;;;;;;;;;10031594;29;20044;-75
2023/06/28 13:19:56;;;;;;;10.38;8.02;;;;;;;;;;10033955;29;20044;-75
2023/06/28 13:24:52;;;;;;;8.20;7.50;;;;;;;;;;10028270;29;20134;-74
2023/06/28 13:29:49;;;;;;;8.30;7.47;;;;;;;;;;10029609;29;20060;-75
2023/06/28 13:34:45;;;;;;;11.77;8.13;;;;;;;;;;10029219;29;20227;-75
2023/06/28 13:39:41;;;;;;;8.48;7.78;;;;;;;;;;10006927;29;20047;-75
2023/06/28 13:44:38;;;;;;;8.98;7.40;;;;;;;;;;10032927;29;20059;-75
2023/06/28 13:49:34;;;;;;;8.23;7.15;;;;;;;;;;10029897;29;20043;-75
2023/06/28 13:54:31;;;;;;;8.63;7.43;;;;;;;;;;10030929;29;20114;-75
2023/06/28 13:59:27;;;;;;;8.98;6.90;;;;;;;;;;10027307;29;20043;-75
2023/06/28 14:04:24;;;;;;;7.25;6.57;;;;;;;;;;10033543;29;20043;-75
2023/06/28 14:09:20;;;;;;;7.20;6.60;;;;;;;;;;10031812;29;20489;-75
2023/06/28 14:14:16;;;;;;;7.80;7.10;;;;;;;;;;10029348;29;20047;-75
2023/06/28 14:19:13;;;;;;;8.35;7.28;;;;;;;;;;10032025;29;20071;-75
2023/06/28 14:24:10;;;;;;;7.45;6.85;;;;;;;;;;10025507;29;20075;-76
2023/06/28 14:29:07;;;;;;;7.35;6.75;;;;;;;;;;10029976;29;20439;-75
2023/06/28 14:34:03;;;;;;;8.05;7.30;;;;;;;;;;10026855;29;20077;-75
2023/06/28 14:39:00;;;;;;;8.13;7.32;;;;;;;;;;10028718;29;20505;-75
2023/06/28 14:43:56;;;;;;;7.60;6.90;;;;;;;;;;10024822;29;20040;-78
2023/06/28 14:48:52;;;;;;;7.60;6.90;;;;;;;;;;10025554;29;20114;-77
2023/06/28 14:53:49;;;;;;;7.65;7.05;;;;;;;;;;10029350;29;20047;-76
2023/06/28 14:58:45;;;;;;;7.63;6.93;;;;;;;;;;10032092;29;20115;-74
2023/06/28 15:03:41;;;;;;;9.25;6.80;;;;;;;;;;10031994;29;20051;-73
2023/06/28 15:08:38;;;;;;;7.57;6.88;;;;;;;;;;10027754;29;20066;-72
2023/06/28 15:13:34;;;;;;;7.28;6.68;;;;;;;;;;10026571;29;20063;-73
2023/06/28 15:18:31;;;;;;;7.38;6.78;;;;;;;;;;10032041;29;20083;-72
2023/06/28 15:23:27;;;;;;;7.05;6.45;;;;;;;;;;10012355;29;20129;-73
2023/06/28 15:28:23;;;;;;;6.72;6.13;;;;;;;;;;10024591;29;20050;-72
2023/06/28 15:33:20;;;;;;;7.18;6.50;;;;;;;;;;10028928;29;20043;-72
2023/06/28 15:38:17;;;;;;;7.43;6.82;;;;;;;;;;10019891;29;20502;-71
2023/06/28 15:43:13;;;;;;;7.45;6.75;;;;;;;;;;10012039;29;20048;-72
2023/06/28 15:48:09;;;;;;;7.60;6.90;;;;;;;;;;10027518;29;20075;-72
2023/06/28 15:53:06;;;;;;;9.15;7.05;;;;;;;;;;10028657;29;20115;-73
2023/06/28 15:58:02;;;;;;;7.38;6.72;;;;;;;;;;10033159;29;20471;-76
2023/06/28 16:02:58;;;;;;;7.28;6.60;;;;;;;;;;10036224;29;20047;-76
2023/06/28 16:07:55;;;;;;;7.95;6.70;;;;;;;;;;10028359;29;20134;-77
2023/06/28 16:12:51;;;;;;;7.00;6.35;;;;;;;;;;10035339;29;20079;-75
2023/06/28 16:17:47;;;;;;;7.15;6.45;;;;;;;;;;10029630;29;20055;-76
2023/06/28 16:22:44;;;;;;;6.90;6.20;;;;;;;;;;10031271;29;20135;-76
2023/06/28 16:27:40;;;;;;;7.88;7.07;;;;;;;;;;10032290;29;20055;-75
2023/06/28 16:32:36;;;;;;;7.78;7.03;;;;;;;;;;10028261;29;20075;-76
2023/06/28 16:37:33;;;;;;;8.95;6.45;;;;;;;;;;10026716;29;20054;-75
2023/06/28 16:42:29;;;;;;;7.40;6.70;;;;;;;;;;9993023;29;20055;-75
2023/06/28 16:47:26;;;;;;;7.68;6.72;;;;;;;;;;10012060;29;20048;-76
2023/06/28 16:52:22;;;;;;;9.18;6.57;;;;;;;;;;10028119;29;20039;-75
2023/06/28 16:57:18;;;;;;;9.65;6.15;;;;;;;;;;10013506;29;20107;-75
2023/06/28 17:02:15;;;;;;;8.73;7.00;;;;;;;;;;10033255;29;20054;-75
2023/06/28 17:07:11;;;;;;;7.80;7.10;;;;;;;;;;10009940;29;20506;-76
2023/06/28 17:12:08;;;;;;;8.57;7.78;;;;;;;;;;10007999;29;20044;-76
2023/06/28 17:17:04;;;;;;;7.85;7.15;;;;;;;;;;10018135;29;20086;-76
2023/06/28 17:22:01;;;;;;;7.63;6.93;;;;;;;;;;10028212;29;20050;-76
2023/06/28 17:26:57;;;;;;;8.80;7.68;;;;;;;;;;10028603;29;20079;-76
2023/06/28 17:31:53;;;;;;;7.72;7.03;;;;;;;;;;10025826;29;20047;-76
2023/06/28 17:36:51;;;;;;;8.68;6.80;;;;;;;;;;10028786;29;20050;-76
2023/06/28 17:41:47;;;;;;;7.75;7.05;;;;;;;;;;10030569;29;20442;-76
2023/06/28 17:46:44;;;;;;;7.72;7.05;;;;;;;;;;10032827;29;20043;-76
2023/06/28 17:51:40;;;;;;;7.65;6.18;;;;;;;;;;10025734;29;20048;-76
2023/06/28 17:56:36;;;;;;;7.35;6.28;;;;;;;;;;10026912;29;20139;-76
2023/06/28 18:01:33;;;;;;;7.07;6.38;;;;;;;;;;10029903;29;20127;-76
2023/06/28 18:06:29;;;;;;;6.68;5.95;;;;;;;;;;10028634;29;20134;-76
2023/06/28 18:11:26;;;;;;;6.57;5.85;;;;;;;;;;10028161;29;20526;-77
2023/06/28 18:16:22;;;;;;;6.90;6.20;;;;;;;;;;10026088;29;20043;-77
2023/06/28 18:21:18;;;;;;;6.38;5.78;;;;;;;;;;10030459;29;20050;-77
2023/06/28 18:26:15;;;;;;;8.40;6.35;;;;;;;;;;10031742;29;20391;-76
2023/06/28 18:31:12;;;;;;;6.60;6.00;;;;;;;;;;10023493;29;20569;-75
2023/06/28 18:36:09;;;;;;;6.82;6.20;;;;;;;;;;10023200;29;20051;-75
2023/06/28 18:41:06;;;;;;;7.25;6.55;;;;;;;;;;10008833;29;20139;-76
2023/06/28 18:46:03;;;;;;;6.88;6.35;;;;;;;;;;10030730;29;20116;-76
2023/06/28 18:50:59;;;;;;;7.13;5.78;;;;;;;;;;10024042;29;20506;-76
2023/06/28 18:55:55;;;;;;;6.90;6.20;;;;;;;;;;10019376;29;20446;-77
2023/06/28 19:00:52;;;;;;;8.63;5.75;;;;;;;;;;10029812;29;20095;-76
2023/06/28 19:05:48;;;;;;;6.80;6.10;;;;;;;;;;10030624;29;20618;-76
2023/06/28 19:10:45;;;;;;;6.03;5.47;;;;;;;;;;10021075;29;20055;-76
2023/06/28 19:15:41;;;;;;;6.57;5.30;;;;;;;;;;10009304;29;20630;-76
2023/06/28 19:20:37;;;;;;;6.47;5.82;;;;;;;;;;10023518;29;20110;-76
2023/06/28 19:25:34;;;;;;;6.35;5.75;;;;;;;;;;10033596;29;20103;-76
2023/06/28 19:30:30;;;;;;;7.18;5.68;;;;;;;;;;9986103;29;20056;-76
2023/06/28 19:35:27;;;;;;;7.10;6.40;;;;;;;;;;10026057;29;20072;-75
2023/06/28 19:40:23;;;;;;;8.82;5.93;;;;;;;;;;10030951;29;20052;-76
2023/06/28 19:45:20;;;;;;;8.05;6.07;;;;;;;;;;10034399;29;20545;-76
2023/06/28 19:50:16;;;;;;;7.55;6.53;;;;;;;;;;10031230;29;20476;-75
2023/06/28 19:55:12;;;;;;;7.68;6.15;;;;;;;;;;10027944;29;20040;-76
2023/06/28 20:00:10;;;;;;;9.73;6.28;;;;;;;;;;10027239;29;20054;-75
2023/06/28 20:05:07;;;;;;;6.65;6.05;;;;;;;;;;10022545;29;20553;-71
2023/06/28 20:10:04;;;;;;;8.55;7.65;;;;;;;;;;10029890;29;20052;-71
2023/06/28 20:15:04;;;;;;;10.00;7.50;;;;;;;;;;10030398;29;20115;-72
2023/06/28 20:20:01;;;;;;;8.82;7.43;;;;;;;;;;10027900;29;20746;-71
2023/06/28 20:24:57;;;;;;;7.88;7.10;;;;;;;;;;10031299;29;20076;-71
2023/06/28 20:29:55;;;;;;;11.43;8.27;;;;;;;;;;10030783;29;20052;-70
2023/06/28 20:34:54;;;;;;;7.80;7.00;;;;;;;;;;10029317;29;20512;-71
2023/06/28 20:39:52;;;;;;;8.57;6.68;;;;;;;;;;10016729;29;20106;-72
2023/06/28 20:44:49;;;;;;;7.95;6.70;;;;;;;;;;10033872;29;20058;-71
2023/06/28 20:49:45;;;;;;;9.38;7.60;;;;;;;;;;10026697;29;20048;-71
2023/06/28 20:54:42;;;;;;;8.02;6.93;;;;;;;;;;10030494;29;20095;-71
2023/06/28 20:59:38;;;;;;;7.93;7.18;;;;;;;;;;10033651;29;20056;-69
2023/06/28 21:04:34;;;;;;;9.75;7.25;;;;;;;;;;10030000;29;20075;-69
2023/06/28 21:09:31;;;;;;;8.90;8.10;;;;;;;;;;10030675;29;20107;-68
2023/06/28 21:14:27;;;;;;;7.85;6.78;;;;;;;;;;10012095;29;20052;-71
2023/06/28 21:19:23;;;;;;;9.57;7.32;;;;;;;;;;10033640;29;20470;-71
2023/06/28 21:24:20;;;;;;;7.75;6.72;;;;;;;;;;10031380;29;20434;-70
2023/06/28 21:29:16;;;;;;;9.25;7.40;;;;;;;;;;10026347;29;20129;-73
2023/06/28 21:34:13;;;;;;;7.70;7.00;;;;;;;;;;10030322;29;20044;-72
2023/06/28 21:39:09;;;;;;;10.18;7.60;;;;;;;;;;10031016;29;20047;-72
2023/06/28 21:44:05;;;;;;;7.57;6.88;;;;;;;;;;10032808;29;20525;-72
2023/06/28 21:49:02;;;;;;;8.10;7.13;;;;;;;;;;10030717;29;20058;-73
2023/06/28 21:53:58;;;;;;;8.30;7.43;;;;;;;;;;10026124;29;20039;-72
2023/06/28 21:58:54;;;;;;;7.63;6.72;;;;;;;;;;10025687;29;20074;-69
2023/06/28 22:03:51;;;;;;;8.30;7.50;;;;;;;;;;10030224;29;20562;-69
2023/06/28 22:08:47;;;;;;;7.15;6.47;;;;;;;;;;10025537;29;20063;-73
2023/06/28 22:13:44;;;;;;;7.55;6.85;;;;;;;;;;10026652;29;20418;-69
2023/06/28 22:18:42;;;;;;;9.20;7.72;;;;;;;;;;10027078;29;20047;-71
2023/06/28 22:23:38;;;;;;;8.27;7.57;;;;;;;;;;10032724;29;20056;-69
2023/06/28 22:28:35;;;;;;;8.50;7.63;;;;;;;;;;10031155;29;20350;-70
2023/06/28 22:33:31;;;;;;;10.43;8.52;;;;;;;;;;10029147;29;20427;-72
2023/06/28 22:38:27;;;;;;;8.25;7.40;;;;;;;;;;10022410;29;20099;-72
2023/06/28 22:43:35;;;;;;;8.88;7.97;;;;;;;;;;10029816;29;20070;-69
2023/06/28 22:48:33;;;;;;;7.93;7.20;;;;;;;;;;10027848;29;20051;-70
2023/06/28 22:53:30;;;;;;;8.95;7.80;;;;;;;;;;10024457;29;20036;-72
2023/06/28 22:58:26;;;;;;;8.63;7.82;;;;;;;;;;10029948;29;20055;-69
2023/06/28 23:03:24;;;;;;;9.23;7.28;;;;;;;;;;10038486;29;20059;-70
2023/06/28 23:08:20;;;;;;;8.40;7.60;;;;;;;;;;10036005;29;20039;-69
2023/06/28 23:13:19;;;;;;;9.10;8.25;;;;;;;;;;10014165;29;20039;-71
2023/06/28 23:18:19;;;;;;;9.65;7.68;;;;;;;;;;10028702;29;20071;-70
2023/06/28 23:23:17;;;;;;;8.82;7.95;;;;;;;;;;10037795;29;20055;-71
2023/06/28 23:28:15;;;;;;;8.50;7.70;;;;;;;;;;10036959;29;20406;-71
2023/06/28 23:33:13;;;;;;;10.38;7.75;;;;;;;;;;10030519;29;20575;-69
2023/06/28 23:38:12;;;;;;;10.40;8.20;;;;;;;;;;10037023;29;20048;-70
2023/06/28 23:43:08;;;;;;;10.35;8.73;;;;;;;;;;10037795;29;20044;-71
2023/06/28 23:48:04;;;;;;;9.93;8.80;;;;;;;;;;10035512;29;20406;-70
2023/06/28 23:53:04;;;;;;;9.65;8.40;;;;;;;;;;10029771;29;20494;-69
2023/06/28 23:58:00;;;;;;;10.63;9.48;;;;;;;;;;10033478;29;20134;-69
